Cala Paguro — D5KY9 — position and weather

sailwx.info

Track history (hours):
 
Tides and Currents Weather Stations Pressure Air Temp Water Temp Dewpoint Dewpoint Depression Visibility Wind Speed Wind Dir Waves Ship Positions

Cala Paguro

Last reported at 2018-Jun-05 22:05 UTC. Time now 2018-Jun-23 17:27 UTC.
Position N 01°24' E 103°14'.
Warning: this ship's position is 17 days out of date.

Length 172 m; draft 9.3 m.

Type: Cargo ship. MMSI: 636017440.

Date/timePositionNaut miles runAvg speedWind from/ knotsBaromVisibWave heightAir tempDewpointWater temp
2018-Jun-05 22:05N 01°24' E 103°14'217.6
2018-Jun-05 21:57N 01°22' E 103°16'818.0
2018-Jun-05 21:29N 01°17' E 103°22'917.4
2018-Jun-05 21:00N 01°13' E 103°30'816.3
2018-Jun-05 20:30N 01°11' E 103°37'815.5
2018-Jun-05 20:00N 01°09' E 103°45'613.0
2018-Jun-05 19:30N 01°12' E 103°51'3 6.2
2018-Jun-05 19:00N 01°15' E 103°51'2 3.2
2018-Jun-05 18:29N 01°16' E 103°50'0 0.0
2018-Jun-05 17:59N 01°16' E 103°50'0 0.0
2018-Jun-05 17:30N 01°16' E 103°50'0 0.1
2018-Jun-05 16:59N 01°16' E 103°50'0 0.1
2018-Jun-05 16:29N 01°16' E 103°50'0 0.0
2018-Jun-05 15:51N 01°16' E 103°50'0 0.0
2018-Jun-05 15:30N 01°16' E 103°50'0 0.0
2018-Jun-05 14:59N 01°16' E 103°50'0 0.0
2018-Jun-05 14:27N 01°16' E 103°50'0 0.1
2018-Jun-05 13:56N 01°16' E 103°50'0 0.0
2018-Jun-05 13:18N 01°16' E 103°50'0 0.0
2018-Jun-05 12:59N 01°16' E 103°50'0 0.1
2018-Jun-05 12:30N 01°16' E 103°50'0 0.0
2018-Jun-05 11:53N 01°16' E 103°50'0 0.0
2018-Jun-05 11:30N 01°16' E 103°50'0 0.1
2018-Jun-05 10:57N 01°16' E 103°50'0 0.1
2018-Jun-05 10:27N 01°16' E 103°50'0 0.1
2018-Jun-05 09:59N 01°16' E 103°50'0 0.1
2018-Jun-05 09:30N 01°16' E 103°50'0 0.0
2018-Jun-05 08:59N 01°16' E 103°50'0 0.0
2018-Jun-05 08:30N 01°16' E 103°50'0 0.0
2018-Jun-05 07:56N 01°16' E 103°50'0 0.0
2018-Jun-05 07:27N 01°16' E 103°50'0 0.0
2018-Jun-05 06:59N 01°16' E 103°50'0 0.1
2018-Jun-05 06:29N 01°16' E 103°50'0 0.1
2018-Jun-05 05:57N 01°16' E 103°50'0 0.0
2018-Jun-05 05:27N 01°16' E 103°50'0 0.0
2018-Jun-05 04:59N 01°16' E 103°50'0 0.0
2018-Jun-05 04:29N 01°16' E 103°50'0 0.0
2018-Jun-05 03:56N 01°16' E 103°50'0 0.0
2018-Jun-05 03:23N 01°16' E 103°50'0 0.0
2018-Jun-05 02:56N 01°16' E 103°50'0 0.1
2018-Jun-05 02:27N 01°16' E 103°50'0 0.1
2018-Jun-05 01:57N 01°16' E 103°50'0 0.0
2018-Jun-05 01:30N 01°16' E 103°50'0 0.0
2018-Jun-05 00:59N 01°16' E 103°50'0 0.1
2018-Jun-05 00:27N 01°16' E 103°50'0 0.1
2018-Jun-04 23:59N 01°16' E 103°50'0 0.0
2018-Jun-04 23:23N 01°16' E 103°50'0 0.0
2018-Jun-04 22:50N 01°16' E 103°50'0 0.3
2018-Jun-04 22:30N 01°16' E 103°50'3 6.3
2018-Jun-04 22:00N 01°14' E 103°53'2 5.0
2018-Jun-04 21:30N 01°11' E 103°52'4 7.9
2018-Jun-04 21:00N 01°10' E 103°48'5 9.1
2018-Jun-04 20:30N 01°07' E 103°45'713.3
2018-Jun-04 19:59N 01°03' E 103°39'612.2
2018-Jun-04 19:30N 01°05' E 103°34'713.9
2018-Jun-04 19:00N 01°09' E 103°28'917.7
2018-Jun-04 18:30N 01°14' E 103°21'1018.0
2018-Jun-04 17:57N 01°20' E 103°14'1018.2
2018-Jun-04 17:24N 01°26' E 103°06'  
Track history (hours):
 
Tides and Currents Weather Stations Pressure Air Temp Water Temp Dewpoint Dewpoint Depression Visibility Wind Speed Wind Dir Waves Ship Positions

Cala Paguro

Last reported at 2018-Jun-05 22:05 UTC. Time now 2018-Jun-23 17:27 UTC.
Position N 01°24' E 103°14'.
Warning: this ship's position is 17 days out of date.

Length 172 m; draft 9.3 m.

Type: Cargo ship. MMSI: 636017440.

Date/timePositionNaut miles runAvg speedWind from/ knotsBaromVisibWave heightAir tempDewpointWater temp
2018-Jun-05 22:05N 01°24' E 103°14'217.6
2018-Jun-05 21:57N 01°22' E 103°16'818.0
2018-Jun-05 21:29N 01°17' E 103°22'917.4
2018-Jun-05 21:00N 01°13' E 103°30'816.3
2018-Jun-05 20:30N 01°11' E 103°37'815.5
2018-Jun-05 20:00N 01°09' E 103°45'613.0
2018-Jun-05 19:30N 01°12' E 103°51'3 6.2
2018-Jun-05 19:00N 01°15' E 103°51'2 3.2
2018-Jun-05 18:29N 01°16' E 103°50'0 0.0
2018-Jun-05 17:59N 01°16' E 103°50'0 0.0
2018-Jun-05 17:30N 01°16' E 103°50'0 0.1
2018-Jun-05 16:59N 01°16' E 103°50'0 0.1
2018-Jun-05 16:29N 01°16' E 103°50'0 0.0
2018-Jun-05 15:51N 01°16' E 103°50'0 0.0
2018-Jun-05 15:30N 01°16' E 103°50'0 0.0
2018-Jun-05 14:59N 01°16' E 103°50'0 0.0
2018-Jun-05 14:27N 01°16' E 103°50'0 0.1
2018-Jun-05 13:56N 01°16' E 103°50'0 0.0
2018-Jun-05 13:18N 01°16' E 103°50'0 0.0
2018-Jun-05 12:59N 01°16' E 103°50'0 0.1
2018-Jun-05 12:30N 01°16' E 103°50'0 0.0
2018-Jun-05 11:53N 01°16' E 103°50'0 0.0
2018-Jun-05 11:30N 01°16' E 103°50'0 0.1
2018-Jun-05 10:57N 01°16' E 103°50'0 0.1
2018-Jun-05 10:27N 01°16' E 103°50'0 0.1
2018-Jun-05 09:59N 01°16' E 103°50'0 0.1
2018-Jun-05 09:30N 01°16' E 103°50'0 0.0
2018-Jun-05 08:59N 01°16' E 103°50'0 0.0
2018-Jun-05 08:30N 01°16' E 103°50'0 0.0
2018-Jun-05 07:56N 01°16' E 103°50'0 0.0
2018-Jun-05 07:27N 01°16' E 103°50'0 0.0
2018-Jun-05 06:59N 01°16' E 103°50'0 0.1
2018-Jun-05 06:29N 01°16' E 103°50'0 0.1
2018-Jun-05 05:57N 01°16' E 103°50'0 0.0
2018-Jun-05 05:27N 01°16' E 103°50'0 0.0
2018-Jun-05 04:59N 01°16' E 103°50'0 0.0
2018-Jun-05 04:29N 01°16' E 103°50'0 0.0
2018-Jun-05 03:56N 01°16' E 103°50'0 0.0
2018-Jun-05 03:23N 01°16' E 103°50'0 0.0
2018-Jun-05 02:56N 01°16' E 103°50'0 0.1
2018-Jun-05 02:27N 01°16' E 103°50'0 0.1
2018-Jun-05 01:57N 01°16' E 103°50'0 0.0
2018-Jun-05 01:30N 01°16' E 103°50'0 0.0
2018-Jun-05 00:59N 01°16' E 103°50'0 0.1
2018-Jun-05 00:27N 01°16' E 103°50'0 0.1
2018-Jun-04 23:59N 01°16' E 103°50'0 0.0
2018-Jun-04 23:23N 01°16' E 103°50'0 0.0
2018-Jun-04 22:50N 01°16' E 103°50'0 0.3
2018-Jun-04 22:30N 01°16' E 103°50'3 6.3
2018-Jun-04 22:00N 01°14' E 103°53'2 5.0
2018-Jun-04 21:30N 01°11' E 103°52'4 7.9
2018-Jun-04 21:00N 01°10' E 103°48'5 9.1
2018-Jun-04 20:30N 01°07' E 103°45'713.3
2018-Jun-04 19:59N 01°03' E 103°39'612.2
2018-Jun-04 19:30N 01°05' E 103°34'713.9
2018-Jun-04 19:00N 01°09' E 103°28'917.7
2018-Jun-04 18:30N 01°14' E 103°21'1018.0
2018-Jun-04 17:57N 01°20' E 103°14'1018.2
2018-Jun-04 17:24N 01°26' E 103°06'  

Dump ship's entire track history